createdAt,value
2024-01-25T00:01:55.871Z,69.87
2024-01-25T00:04:22.997Z,69.65
2024-01-25T00:06:49.909Z,69.91
2024-01-25T00:09:16.630Z,69.28
2024-01-25T00:11:43.924Z,69.50
2024-01-25T00:14:10.500Z,69.23
2024-01-25T00:16:37.674Z,68.83
2024-01-25T00:19:04.305Z,69.61
2024-01-25T00:21:30.943Z,69.13
2024-01-25T00:23:57.589Z,69.39
2024-01-25T00:26:24.122Z,69.53
2024-01-25T00:28:50.678Z,70.24
2024-01-25T00:31:17.387Z,69.55
2024-01-25T00:33:44.085Z,69.72
2024-01-25T00:36:11.190Z,69.49
2024-01-25T00:38:37.872Z,68.90
2024-01-25T00:41:04.437Z,68.92
2024-01-25T00:43:31.172Z,68.95
2024-01-25T00:45:57.955Z,67.83
2024-01-25T00:48:24.783Z,68.25
2024-01-25T00:50:51.456Z,68.14
2024-01-25T00:53:18.097Z,68.28
2024-01-25T00:55:44.782Z,68.14
2024-01-25T00:58:11.560Z,67.99
2024-01-25T01:00:38.425Z,67.67
2024-01-25T01:03:06.339Z,68.49
2024-01-25T01:05:33.166Z,68.38
2024-01-25T01:08:00.073Z,68.98
2024-01-25T01:10:26.903Z,69.26
2024-01-25T01:12:55.390Z,69.16
2024-01-25T01:15:22.030Z,69.21
2024-01-25T01:17:48.798Z,69.46
2024-01-25T01:20:15.698Z,69.26
2024-01-25T01:22:42.407Z,68.92
2024-01-25T01:25:09.067Z,69.07
2024-01-25T01:27:35.763Z,69.32
2024-01-25T01:30:02.375Z,69.62
2024-01-25T01:32:29.064Z,69.63
2024-01-25T01:34:55.930Z,70.08
2024-01-25T01:37:22.790Z,69.75
2024-01-25T01:39:49.497Z,69.87
2024-01-25T01:42:16.072Z,70.35
2024-01-25T01:44:42.654Z,70.56
2024-01-25T01:47:09.314Z,70.34
2024-01-25T01:49:36.218Z,70.85
2024-01-25T01:52:03.441Z,70.67
2024-01-25T01:54:30.114Z,70.48
2024-01-25T01:56:56.732Z,69.78
2024-01-25T01:59:26.786Z,70.42
2024-01-25T02:01:53.753Z,70.16
2024-01-25T02:04:20.599Z,69.85
2024-01-25T02:06:47.431Z,70.73
2024-01-25T02:09:14.352Z,70.32
2024-01-25T02:11:40.919Z,70.75
2024-01-25T02:14:11.684Z,71.41
2024-01-25T02:16:38.783Z,70.22
2024-01-25T02:19:05.606Z,70.04
2024-01-25T02:21:32.314Z,70.29
2024-01-25T02:23:59.518Z,71.00
2024-01-25T02:26:26.053Z,71.14
2024-01-25T02:28:52.704Z,71.52
2024-01-25T02:31:22.046Z,71.18
2024-01-25T02:33:48.733Z,71.05
2024-01-25T02:36:15.445Z,71.03
2024-01-25T02:38:42.041Z,71.37
2024-01-25T02:41:08.659Z,71.16
2024-01-25T02:43:35.264Z,71.71
2024-01-25T02:46:01.981Z,72.49
2024-01-25T02:48:28.826Z,73.10
2024-01-25T02:50:55.495Z,73.31
2024-01-25T02:53:22.063Z,73.36
2024-01-25T02:55:48.691Z,71.98
2024-01-25T02:58:15.428Z,72.40
2024-01-25T03:00:42.150Z,72.17
2024-01-25T03:03:08.844Z,71.47
2024-01-25T03:05:36.095Z,71.77
2024-01-25T03:08:02.885Z,72.01
2024-01-25T03:10:29.827Z,71.74
2024-01-25T03:12:56.980Z,71.85
2024-01-25T03:15:23.543Z,72.14
2024-01-25T03:17:50.139Z,72.01
2024-01-25T03:20:16.948Z,72.04
2024-01-25T03:22:43.628Z,71.82
2024-01-25T03:25:11.306Z,71.77
2024-01-25T03:27:37.902Z,72.39
2024-01-25T03:30:06.541Z,72.72
2024-01-25T03:32:34.271Z,72.72
2024-01-25T03:35:01.111Z,72.79
2024-01-25T03:37:27.837Z,72.73
2024-01-25T03:39:54.480Z,73.29
2024-01-25T03:42:21.070Z,73.82
2024-01-25T03:44:48.489Z,74.29
2024-01-25T03:47:15.031Z,74.34
2024-01-25T03:49:41.860Z,74.65
2024-01-25T03:52:08.687Z,74.91
2024-01-25T03:54:35.915Z,75.59
2024-01-25T03:57:02.699Z,75.32
2024-01-25T03:59:29.309Z,75.96
2024-01-25T04:01:55.942Z,75.31
2024-01-25T04:04:22.763Z,75.52
2024-01-25T04:06:49.670Z,75.86
2024-01-25T04:09:16.538Z,76.07
2024-01-25T04:11:43.222Z,75.92
2024-01-25T04:14:09.939Z,76.34
2024-01-25T04:16:36.614Z,76.77
2024-01-25T04:19:03.259Z,76.60
2024-01-25T04:21:30.064Z,76.35
2024-01-25T04:23:57.695Z,75.26
2024-01-25T04:26:24.646Z,75.61
2024-01-25T04:28:51.188Z,76.03
2024-01-25T04:31:18.643Z,76.34
2024-01-25T04:33:48.805Z,75.63
2024-01-25T04:36:16.097Z,76.01
2024-01-25T04:38:42.741Z,76.43
2024-01-25T04:41:09.328Z,76.40
2024-01-25T04:43:37.726Z,76.40
2024-01-25T04:46:04.707Z,76.25
2024-01-25T04:48:31.614Z,76.39
2024-01-25T04:50:59.889Z,76.57
2024-01-25T04:53:26.507Z,76.64
2024-01-25T04:55:54.453Z,76.61
2024-01-25T04:58:21.125Z,76.63
2024-01-25T05:00:47.786Z,76.72
2024-01-25T05:03:14.433Z,76.25
2024-01-25T05:05:41.055Z,76.78
2024-01-25T05:08:07.700Z,76.86
2024-01-25T05:10:34.298Z,76.69
2024-01-25T05:13:00.891Z,76.85
2024-01-25T05:15:27.515Z,76.64
2024-01-25T05:17:54.214Z,76.95
2024-01-25T05:20:21.297Z,76.96
2024-01-25T05:22:48.166Z,77.01
2024-01-25T05:25:14.817Z,76.88
2024-01-25T05:27:41.459Z,77.26
2024-01-25T05:30:08.736Z,77.03
2024-01-25T05:32:35.309Z,77.36
2024-01-25T05:35:02.048Z,78.12
2024-01-25T05:37:28.773Z,78.23
2024-01-25T05:39:55.381Z,78.40
2024-01-25T05:42:22.006Z,78.70
2024-01-25T05:44:48.575Z,78.62
2024-01-25T05:47:15.236Z,78.57
2024-01-25T05:49:42.012Z,78.78
2024-01-25T05:52:09.091Z,79.22
2024-01-25T05:54:35.956Z,79.11
2024-01-25T05:57:02.725Z,79.00
2024-01-25T05:59:29.288Z,79.06
2024-01-25T06:01:56.000Z,79.43
2024-01-25T06:04:22.876Z,79.07
2024-01-25T06:06:49.745Z,79.16
2024-01-25T06:09:18.856Z,79.34
2024-01-25T06:11:46.554Z,79.31
2024-01-25T06:14:13.147Z,78.84
2024-01-25T06:16:39.770Z,78.92
2024-01-25T06:19:06.466Z,79.10
2024-01-25T06:21:35.405Z,79.07
2024-01-25T06:24:05.752Z,79.00
2024-01-25T06:26:32.393Z,79.10
2024-01-25T06:28:59.040Z,79.27
2024-01-25T06:31:25.869Z,79.07
2024-01-25T06:33:54.623Z,78.60
2024-01-25T06:36:21.417Z,78.83
2024-01-25T06:38:47.995Z,79.17
2024-01-25T06:41:14.878Z,79.73
2024-01-25T06:43:41.553Z,79.64
2024-01-25T06:46:08.478Z,80.04
2024-01-25T06:48:35.467Z,79.84
2024-01-25T06:51:02.440Z,80.38
2024-01-25T06:53:29.520Z,80.41
2024-01-25T06:55:56.225Z,80.24
2024-01-25T06:58:23.203Z,80.33
2024-01-25T07:00:50.420Z,80.08
2024-01-25T07:03:17.545Z,80.08
2024-01-25T07:05:44.534Z,80.33
2024-01-25T07:08:14.616Z,80.77
2024-01-25T07:10:41.688Z,80.93
2024-01-25T07:13:08.387Z,81.02
2024-01-25T07:15:35.438Z,80.81
2024-01-25T07:18:02.284Z,80.65
2024-01-25T07:20:29.225Z,80.39
2024-01-25T07:22:55.961Z,80.95
2024-01-25T07:25:22.590Z,80.60
2024-01-25T07:27:50.794Z,81.07
2024-01-25T07:30:17.805Z,80.81
2024-01-25T07:32:44.720Z,80.46
2024-01-25T07:35:11.509Z,80.38
2024-01-25T07:37:38.123Z,80.65
2024-01-25T07:40:05.231Z,80.33
2024-01-25T07:42:31.999Z,80.64
2024-01-25T07:44:58.689Z,80.47
2024-01-25T07:47:25.869Z,80.70
2024-01-25T07:49:52.692Z,80.55
2024-01-25T07:52:19.495Z,79.75
2024-01-25T07:54:46.230Z,79.52
2024-01-25T07:57:14.325Z,79.30
2024-01-25T07:59:40.966Z,79.32
2024-01-25T08:02:07.884Z,79.28
2024-01-25T08:04:34.950Z,78.89
2024-01-25T08:07:01.813Z,78.30
2024-01-25T08:09:28.589Z,78.26
2024-01-25T08:11:55.355Z,78.35
2024-01-25T08:14:22.081Z,78.58
2024-01-25T08:16:48.763Z,78.49
2024-01-25T08:19:15.615Z,78.45
2024-01-25T08:21:42.387Z,78.50
2024-01-25T08:24:09.679Z,78.32
2024-01-25T08:26:36.338Z,78.42
2024-01-25T08:29:03.091Z,78.33
2024-01-25T08:31:29.817Z,78.74
2024-01-25T08:33:56.704Z,78.75
2024-01-25T08:36:24.024Z,78.11
2024-01-25T08:38:50.741Z,78.19
2024-01-25T08:41:17.661Z,77.81
2024-01-25T08:43:44.514Z,78.64
2024-01-25T08:46:13.882Z,78.73
2024-01-25T08:48:40.730Z,79.01
2024-01-25T08:51:07.513Z,78.51
2024-01-25T08:53:34.233Z,78.30
2024-01-25T08:56:02.974Z,78.54
2024-01-25T08:58:31.117Z,77.99
2024-01-25T09:00:57.932Z,77.67
2024-01-25T09:03:24.711Z,77.09
2024-01-25T09:05:51.537Z,77.55
2024-01-25T09:08:18.683Z,77.60
2024-01-25T09:10:45.790Z,78.26
2024-01-25T09:13:12.649Z,78.48
2024-01-25T09:15:39.364Z,77.59
2024-01-25T09:18:06.176Z,77.28
2024-01-25T09:20:33.060Z,75.18
2024-01-25T09:22:59.870Z,75.31
2024-01-25T09:25:26.640Z,74.31
2024-01-25T09:27:53.359Z,74.57
2024-01-25T09:30:21.838Z,73.83
2024-01-25T09:32:49.032Z,74.64
2024-01-25T09:35:16.253Z,74.50
2024-01-25T09:37:43.040Z,74.07
2024-01-25T09:40:11.408Z,74.19
2024-01-25T09:42:38.423Z,74.38
2024-01-25T09:45:06.298Z,73.88
2024-01-25T09:47:33.171Z,73.46
2024-01-25T09:50:00.581Z,73.65
2024-01-25T09:52:27.705Z,73.81
2024-01-25T09:54:55.290Z,73.92
2024-01-25T09:57:23.182Z,73.48
2024-01-25T09:59:51.746Z,73.15
2024-01-25T10:02:18.640Z,73.66
2024-01-25T10:04:49.453Z,73.12
2024-01-25T10:07:16.087Z,73.05
2024-01-25T10:09:43.724Z,73.50
2024-01-25T10:12:17.930Z,73.61
2024-01-25T10:14:45.764Z,72.34
2024-01-25T10:17:12.580Z,71.96
2024-01-25T10:19:40.334Z,71.20
2024-01-25T10:22:09.071Z,72.70
2024-01-25T10:24:36.081Z,70.64
2024-01-25T10:27:03.121Z,70.36
2024-01-25T10:29:30.254Z,69.95
2024-01-25T10:31:56.967Z,69.83
2024-01-25T10:34:24.236Z,69.47
2024-01-25T10:36:51.781Z,69.76
2024-01-25T10:39:20.033Z,68.99
2024-01-25T10:41:51.476Z,69.26
2024-01-25T10:44:20.455Z,67.74
2024-01-25T10:46:48.523Z,67.84
2024-01-25T10:49:15.278Z,68.76
2024-01-25T10:51:42.433Z,67.72
2024-01-25T10:54:09.474Z,66.92
2024-01-25T10:56:36.472Z,67.54
2024-01-25T10:59:03.406Z,66.46
2024-01-25T11:01:30.343Z,66.42
2024-01-25T11:03:59.882Z,66.62
2024-01-25T11:09:10.787Z,67.51
2024-01-25T11:11:38.293Z,66.92
2024-01-25T11:14:04.770Z,67.68
2024-01-25T11:16:33.183Z,66.84
2024-01-25T11:19:07.321Z,68.25
2024-01-25T11:21:40.888Z,65.85
2024-01-25T11:24:12.911Z,65.58
2024-01-25T11:26:39.743Z,65.34
2024-01-25T11:29:07.070Z,65.48
2024-01-25T11:31:34.834Z,65.56
2024-01-25T11:34:01.807Z,65.13
2024-01-25T11:36:29.667Z,65.20
2024-01-25T11:39:05.705Z,64.82
2024-01-25T11:41:52.629Z,64.27
2024-01-25T11:44:19.709Z,63.73
2024-01-25T11:46:46.749Z,64.98
2024-01-25T11:49:26.153Z,64.42
2024-01-25T11:54:43.949Z,65.34
2024-01-25T11:57:10.650Z,63.80
2024-01-25T11:59:40.038Z,63.68
2024-01-25T12:02:06.662Z,63.53
2024-01-25T12:04:37.613Z,62.86
2024-01-25T12:07:04.610Z,62.80
2024-01-25T12:09:31.828Z,61.78
2024-01-25T12:11:58.793Z,62.62
2024-01-25T12:14:25.669Z,61.71
2024-01-25T12:16:52.269Z,61.39
2024-01-25T12:19:19.489Z,61.71
2024-01-25T12:21:46.572Z,61.47
2024-01-25T12:24:13.147Z,59.95
2024-01-25T12:26:39.724Z,60.47
2024-01-25T12:29:06.522Z,61.75
2024-01-25T12:31:33.165Z,62.14
2024-01-25T12:34:00.454Z,61.38
2024-01-25T12:38:56.974Z,59.88
2024-01-25T12:41:32.616Z,59.65
2024-01-25T12:44:04.322Z,59.86
2024-01-25T12:49:49.815Z,61.15
2024-01-25T12:52:16.692Z,60.98
2024-01-25T12:55:22.833Z,61.39
2024-01-25T13:06:35.326Z,61.99
2024-01-25T13:09:05.904Z,60.79
2024-01-25T13:14:15.602Z,60.08
2024-01-25T13:28:11.918Z,61.98
2024-01-25T13:33:22.294Z,61.05
2024-01-25T13:35:58.826Z,61.01
2024-01-25T13:50:53.011Z,58.89
2024-01-25T13:53:19.753Z,58.54
2024-01-25T13:55:46.405Z,58.82
2024-01-25T14:00:54.074Z,59.60
2024-01-25T14:03:30.591Z,59.53
2024-01-25T14:05:58.604Z,59.71
2024-01-25T14:08:27.560Z,59.95
2024-01-25T14:11:00.236Z,59.21
2024-01-25T14:13:27.277Z,59.38
2024-01-25T14:15:54.162Z,58.78
2024-01-25T14:18:25.298Z,59.38
2024-01-25T14:20:53.058Z,60.43
2024-01-25T14:23:19.712Z,60.85
2024-01-25T14:25:46.819Z,61.36
2024-01-25T14:28:13.537Z,61.44
2024-01-25T14:30:40.797Z,60.30
2024-01-25T14:33:07.885Z,60.74
2024-01-25T14:35:34.781Z,61.50
2024-01-25T14:38:01.424Z,60.91
2024-01-25T14:40:43.493Z,61.70
2024-01-25T14:43:14.929Z,61.14
2024-01-25T14:45:41.562Z,61.29
2024-01-25T14:48:08.226Z,61.35
2024-01-25T14:50:34.982Z,62.17
2024-01-25T14:53:01.597Z,62.62
2024-01-25T14:55:28.353Z,62.85
2024-01-25T14:57:55.054Z,63.56
2024-01-25T15:00:21.768Z,63.87
2024-01-25T15:02:48.416Z,63.74
2024-01-25T15:05:15.277Z,63.82
2024-01-25T15:07:42.719Z,63.56
2024-01-25T15:10:09.847Z,64.01
2024-01-25T15:12:36.517Z,64.15
2024-01-25T15:15:03.145Z,65.14
2024-01-25T15:17:29.855Z,64.57
2024-01-25T15:19:56.655Z,64.73
2024-01-25T15:22:26.940Z,64.65
2024-01-25T15:24:53.870Z,64.46
2024-01-25T15:27:20.518Z,65.35
2024-01-25T15:29:47.244Z,66.74
2024-01-25T15:32:13.883Z,67.37
2024-01-25T15:34:41.814Z,67.68
2024-01-25T15:37:08.541Z,67.96
2024-01-25T15:39:35.096Z,68.94
2024-01-25T15:42:01.835Z,68.07
2024-01-25T15:44:28.583Z,68.73
2024-01-25T15:46:55.240Z,69.34
2024-01-25T15:49:24.347Z,68.87
2024-01-25T15:51:51.075Z,68.05
2024-01-25T15:54:18.972Z,68.66
2024-01-25T15:56:45.653Z,68.28
2024-01-25T15:59:12.518Z,68.53
2024-01-25T16:01:39.281Z,68.45
2024-01-25T16:04:06.045Z,67.97
2024-01-25T16:06:33.776Z,68.60
2024-01-25T16:09:03.778Z,68.58
2024-01-25T16:11:30.425Z,67.70
2024-01-25T16:13:57.069Z,67.87
2024-01-25T16:16:23.825Z,68.19
2024-01-25T16:18:50.574Z,68.05
2024-01-25T16:21:17.365Z,68.58
2024-01-25T16:23:43.968Z,68.83
2024-01-25T16:26:10.629Z,68.79
2024-01-25T16:28:37.436Z,69.41
2024-01-25T16:31:04.276Z,70.07
2024-01-25T16:33:31.161Z,70.41
2024-01-25T16:35:58.920Z,70.97
2024-01-25T16:38:25.733Z,71.88
2024-01-25T16:40:52.501Z,72.56
2024-01-25T16:43:19.160Z,73.25
2024-01-25T16:45:45.871Z,73.53
2024-01-25T16:48:13.688Z,73.66
2024-01-25T16:50:46.452Z,73.09
2024-01-25T16:53:17.705Z,72.99
2024-01-25T16:55:44.332Z,73.29
2024-01-25T16:58:10.942Z,74.17
2024-01-25T17:00:37.638Z,74.19
2024-01-25T17:03:04.445Z,74.25
2024-01-25T17:05:31.435Z,74.86
2024-01-25T17:07:58.185Z,75.28
2024-01-25T17:10:25.001Z,75.97
2024-01-25T17:12:52.086Z,76.27
2024-01-25T17:15:19.895Z,77.57
2024-01-25T17:17:46.688Z,79.28
2024-01-25T17:20:13.513Z,80.43
2024-01-25T17:22:40.234Z,81.90
2024-01-25T17:25:07.668Z,82.11
2024-01-25T17:27:34.624Z,82.88
2024-01-25T17:30:01.458Z,83.18
2024-01-25T17:32:28.550Z,83.64
2024-01-25T17:34:58.268Z,83.86
2024-01-25T17:37:24.925Z,83.88
2024-01-25T17:39:51.679Z,84.55
2024-01-25T17:42:18.804Z,84.37
2024-01-25T17:44:45.701Z,84.48
2024-01-25T17:47:12.837Z,84.91
2024-01-25T17:49:39.696Z,84.72
2024-01-25T17:52:07.049Z,85.15
2024-01-25T17:54:34.253Z,85.11
2024-01-25T17:57:02.328Z,85.40
2024-01-25T17:59:28.889Z,85.58
2024-01-25T18:01:55.638Z,85.81
2024-01-25T18:04:22.332Z,85.74
2024-01-25T18:06:48.983Z,85.92
2024-01-25T18:09:15.797Z,86.24
2024-01-25T18:11:42.467Z,86.29
2024-01-25T18:14:09.094Z,86.58
2024-01-25T18:16:38.182Z,86.84
2024-01-25T18:19:04.835Z,86.93
2024-01-25T18:21:32.115Z,87.24
2024-01-25T18:23:58.880Z,87.44
2024-01-25T18:26:26.300Z,87.52
2024-01-25T18:28:53.032Z,87.73
2024-01-25T18:31:20.339Z,87.83
2024-01-25T18:33:47.234Z,87.68
2024-01-25T18:36:14.747Z,88.08
2024-01-25T18:38:41.452Z,88.11
2024-01-25T18:41:11.053Z,88.49
2024-01-25T18:43:38.386Z,88.72
2024-01-25T18:46:07.171Z,88.67
2024-01-25T18:48:34.473Z,88.78
2024-01-25T18:51:03.257Z,88.85
2024-01-25T18:53:30.782Z,88.73
2024-01-25T18:55:57.566Z,88.55
2024-01-25T18:58:25.604Z,88.34
2024-01-25T19:00:52.450Z,88.24
2024-01-25T19:03:19.241Z,88.26
2024-01-25T19:05:47.791Z,88.58
2024-01-25T19:08:14.578Z,88.00
2024-01-25T19:10:41.190Z,88.10
2024-01-25T19:13:07.759Z,88.30
2024-01-25T19:15:34.720Z,88.18
2024-01-25T19:18:02.018Z,88.17
2024-01-25T19:20:28.861Z,88.23
2024-01-25T19:22:55.482Z,87.59
2024-01-25T19:25:22.331Z,88.46
2024-01-25T19:27:49.201Z,88.05
2024-01-25T19:30:17.033Z,88.34
2024-01-25T19:32:44.497Z,88.11
2024-01-25T19:35:11.313Z,87.73
2024-01-25T19:37:37.865Z,88.49
2024-01-25T19:40:04.722Z,89.15
2024-01-25T19:42:31.426Z,89.25
2024-01-25T19:44:58.020Z,89.44
2024-01-25T19:47:24.674Z,89.39
2024-01-25T19:49:52.058Z,89.53
2024-01-25T19:52:18.705Z,89.95
2024-01-25T19:54:45.481Z,90.06
2024-01-25T19:57:12.692Z,90.12
2024-01-25T19:59:39.939Z,89.98
2024-01-25T20:02:07.496Z,90.24
2024-01-25T20:04:34.809Z,90.17
2024-01-25T20:07:01.921Z,90.44
2024-01-25T20:09:29.732Z,89.83
2024-01-25T20:11:57.134Z,90.30
2024-01-25T20:14:24.318Z,90.57
2024-01-25T20:16:51.984Z,90.04
2024-01-25T20:19:18.920Z,90.12
2024-01-25T20:21:45.785Z,89.18
2024-01-25T20:24:12.762Z,90.03
2024-01-25T20:26:40.343Z,90.61
2024-01-25T20:29:07.126Z,90.25
2024-01-25T20:31:33.745Z,90.04
2024-01-25T20:34:00.570Z,90.06
2024-01-25T20:36:27.342Z,90.12
2024-01-25T20:38:54.048Z,90.05
2024-01-25T20:41:21.947Z,90.60
2024-01-25T20:43:48.578Z,90.37
2024-01-25T20:46:15.272Z,90.81
2024-01-25T20:48:42.987Z,90.65
2024-01-25T20:51:09.657Z,90.18
2024-01-25T20:53:36.271Z,90.10
2024-01-25T20:56:03.604Z,90.31
2024-01-25T20:58:30.325Z,89.88
2024-01-25T21:00:57.274Z,90.15
2024-01-25T21:03:24.157Z,90.51
2024-01-25T21:05:50.953Z,90.86
2024-01-25T21:08:17.681Z,90.51
2024-01-25T21:10:45.738Z,90.38
2024-01-25T21:13:12.725Z,89.23
2024-01-25T21:15:39.367Z,90.37
2024-01-25T21:18:06.591Z,90.41
2024-01-25T21:20:33.881Z,90.48
2024-01-25T21:23:00.746Z,90.91
2024-01-25T21:25:27.387Z,90.73
2024-01-25T21:27:54.035Z,90.40
2024-01-25T21:30:20.746Z,90.10
2024-01-25T21:32:47.513Z,90.14
2024-01-25T21:35:14.472Z,89.71
2024-01-25T21:37:41.154Z,89.29
2024-01-25T21:40:07.983Z,90.07
2024-01-25T21:42:38.425Z,90.04
2024-01-25T21:45:10.519Z,90.58
2024-01-25T21:47:39.621Z,91.34
2024-01-25T21:50:09.865Z,91.19
2024-01-25T21:52:36.994Z,91.49
2024-01-25T21:55:07.935Z,91.51
2024-01-25T21:57:34.918Z,91.70
2024-01-25T22:00:01.631Z,91.93
2024-01-25T22:02:28.394Z,92.27
2024-01-25T22:04:55.033Z,91.86
2024-01-25T22:07:21.696Z,91.90
2024-01-25T22:09:48.352Z,92.12
2024-01-25T22:12:14.980Z,92.12
2024-01-25T22:14:41.753Z,92.51
2024-01-25T22:17:08.411Z,92.42
2024-01-25T22:19:35.301Z,92.69
2024-01-25T22:22:01.954Z,92.52
2024-01-25T22:24:28.655Z,92.76
2024-01-25T22:26:55.293Z,93.06
2024-01-25T22:29:21.884Z,92.86
2024-01-25T22:31:48.458Z,92.97
2024-01-25T22:34:15.437Z,92.80
2024-01-25T22:36:42.736Z,92.71
2024-01-25T22:39:09.362Z,92.79
2024-01-25T22:41:36.036Z,93.02
2024-01-25T22:44:02.630Z,93.39
2024-01-25T22:46:29.346Z,93.50
2024-01-25T22:48:57.194Z,93.62
2024-01-25T22:51:23.982Z,93.51
2024-01-25T22:53:50.712Z,93.83
2024-01-25T22:56:17.525Z,93.62
2024-01-25T22:58:44.184Z,93.67
2024-01-25T23:01:11.345Z,93.62
2024-01-25T23:03:38.263Z,93.41
2024-01-25T23:06:05.087Z,93.44
2024-01-25T23:08:31.693Z,93.11
2024-01-25T23:10:58.738Z,93.17
2024-01-25T23:13:25.731Z,93.03
2024-01-25T23:15:52.647Z,92.99
2024-01-25T23:18:19.637Z,93.25
2024-01-25T23:20:46.384Z,93.06
2024-01-25T23:23:14.693Z,93.02
2024-01-25T23:25:41.895Z,93.17
2024-01-25T23:28:08.536Z,93.11
2024-01-25T23:30:35.312Z,93.28
2024-01-25T23:33:02.130Z,93.30
2024-01-25T23:35:29.512Z,93.32
2024-01-25T23:37:56.224Z,93.42
2024-01-25T23:40:23.066Z,93.37
2024-01-25T23:42:50.007Z,93.56
2024-01-25T23:45:19.167Z,93.55
2024-01-25T23:47:45.954Z,93.66
2024-01-25T23:50:13.274Z,93.49
2024-01-25T23:52:40.136Z,93.63
2024-01-25T23:55:08.156Z,93.63
2024-01-25T23:57:35.589Z,93.66
